sensor_id;sensor_type;location;lat;lon;timestamp;P1;durP1;ratioP1;P2;durP2;ratioP2
33802;SDS011;20110;53.120;5.786;2023-04-24T00:00:19;22.55;;;10.65;;
33802;SDS011;20110;53.120;5.786;2023-04-24T00:02:45;18.10;;;9.93;;
33802;SDS011;20110;53.120;5.786;2023-04-24T00:05:12;26.83;;;11.32;;
33802;SDS011;20110;53.120;5.786;2023-04-24T00:07:43;20.58;;;11.57;;
33802;SDS011;20110;53.120;5.786;2023-04-24T00:10:10;20.02;;;11.63;;
33802;SDS011;20110;53.120;5.786;2023-04-24T00:12:37;21.67;;;10.55;;
33802;SDS011;20110;53.120;5.786;2023-04-24T00:15:03;22.15;;;10.27;;
33802;SDS011;20110;53.120;5.786;2023-04-24T00:17:30;18.48;;;9.73;;
33802;SDS011;20110;53.120;5.786;2023-04-24T00:19:56;18.67;;;11.30;;
33802;SDS011;20110;53.120;5.786;2023-04-24T00:22:30;18.55;;;12.32;;
33802;SDS011;20110;53.120;5.786;2023-04-24T00:24:56;23.95;;;11.60;;
33802;SDS011;20110;53.120;5.786;2023-04-24T00:27:22;22.33;;;13.70;;
33802;SDS011;20110;53.120;5.786;2023-04-24T00:29:48;23.98;;;12.68;;
33802;SDS011;20110;53.120;5.786;2023-04-24T00:32:14;24.60;;;13.40;;
33802;SDS011;20110;53.120;5.786;2023-04-24T00:34:40;20.52;;;12.48;;
33802;SDS011;20110;53.120;5.786;2023-04-24T00:37:07;23.30;;;12.10;;
33802;SDS011;20110;53.120;5.786;2023-04-24T00:39:33;23.10;;;12.68;;
33802;SDS011;20110;53.120;5.786;2023-04-24T00:41:58;24.75;;;13.18;;
33802;SDS011;20110;53.120;5.786;2023-04-24T00:44:24;20.35;;;12.40;;
33802;SDS011;20110;53.120;5.786;2023-04-24T00:46:50;20.92;;;12.55;;
33802;SDS011;20110;53.120;5.786;2023-04-24T00:49:20;24.85;;;13.07;;
33802;SDS011;20110;53.120;5.786;2023-04-24T00:51:48;22.75;;;12.70;;
33802;SDS011;20110;53.120;5.786;2023-04-24T00:54:16;22.38;;;13.20;;
33802;SDS011;20110;53.120;5.786;2023-04-24T00:56:43;22.20;;;13.02;;
33802;SDS011;20110;53.120;5.786;2023-04-24T00:59:10;25.63;;;13.93;;
33802;SDS011;20110;53.120;5.786;2023-04-24T01:01:38;34.45;;;14.48;;
33802;SDS011;20110;53.120;5.786;2023-04-24T01:04:08;21.45;;;14.20;;
33802;SDS011;20110;53.120;5.786;2023-04-24T01:06:38;27.33;;;14.13;;
33802;SDS011;20110;53.120;5.786;2023-04-24T01:09:05;22.67;;;13.77;;
33802;SDS011;20110;53.120;5.786;2023-04-24T01:11:36;21.92;;;13.65;;
33802;SDS011;20110;53.120;5.786;2023-04-24T01:14:02;18.27;;;13.05;;
33802;SDS011;20110;53.120;5.786;2023-04-24T01:16:29;21.08;;;13.05;;
33802;SDS011;20110;53.120;5.786;2023-04-24T01:18:55;23.35;;;14.13;;
33802;SDS011;20110;53.120;5.786;2023-04-24T01:21:21;23.92;;;13.95;;
33802;SDS011;20110;53.120;5.786;2023-04-24T01:23:52;23.55;;;14.10;;
33802;SDS011;20110;53.120;5.786;2023-04-24T01:26:18;21.58;;;13.57;;
33802;SDS011;20110;53.120;5.786;2023-04-24T01:28:45;27.67;;;13.88;;
33802;SDS011;20110;53.120;5.786;2023-04-24T01:31:12;22.70;;;14.20;;
33802;SDS011;20110;53.120;5.786;2023-04-24T01:33:38;22.98;;;13.77;;
33802;SDS011;20110;53.120;5.786;2023-04-24T01:36:07;25.20;;;14.45;;
33802;SDS011;20110;53.120;5.786;2023-04-24T01:38:35;23.85;;;13.88;;
33802;SDS011;20110;53.120;5.786;2023-04-24T01:41:02;20.08;;;14.20;;
33802;SDS011;20110;53.120;5.786;2023-04-24T01:43:28;25.00;;;13.57;;
33802;SDS011;20110;53.120;5.786;2023-04-24T01:45:54;27.80;;;14.57;;
33802;SDS011;20110;53.120;5.786;2023-04-24T01:48:20;21.50;;;14.43;;
33802;SDS011;20110;53.120;5.786;2023-04-24T01:50:47;23.08;;;13.27;;
33802;SDS011;20110;53.120;5.786;2023-04-24T01:53:12;23.38;;;14.55;;
33802;SDS011;20110;53.120;5.786;2023-04-24T01:55:39;24.63;;;14.40;;
33802;SDS011;20110;53.120;5.786;2023-04-24T01:58:06;25.45;;;14.90;;
33802;SDS011;20110;53.120;5.786;2023-04-24T02:00:32;23.63;;;15.00;;
33802;SDS011;20110;53.120;5.786;2023-04-24T02:02:58;21.15;;;14.60;;
33802;SDS011;20110;53.120;5.786;2023-04-24T02:05:24;25.27;;;13.63;;
33802;SDS011;20110;53.120;5.786;2023-04-24T02:07:50;29.20;;;14.43;;
33802;SDS011;20110;53.120;5.786;2023-04-24T02:10:15;25.15;;;14.50;;
33802;SDS011;20110;53.120;5.786;2023-04-24T02:12:41;29.75;;;15.27;;
33802;SDS011;20110;53.120;5.786;2023-04-24T02:15:07;21.02;;;13.68;;
33802;SDS011;20110;53.120;5.786;2023-04-24T02:17:33;23.63;;;13.13;;
33802;SDS011;20110;53.120;5.786;2023-04-24T02:19:59;16.77;;;10.80;;
33802;SDS011;20110;53.120;5.786;2023-04-24T02:22:25;13.32;;;5.90;;
33802;SDS011;20110;53.120;5.786;2023-04-24T02:24:51;9.00;;;4.95;;
33802;SDS011;20110;53.120;5.786;2023-04-24T02:27:17;9.85;;;4.50;;
33802;SDS011;20110;53.120;5.786;2023-04-24T02:29:42;9.38;;;6.82;;
33802;SDS011;20110;53.120;5.786;2023-04-24T02:32:08;10.35;;;7.72;;
33802;SDS011;20110;53.120;5.786;2023-04-24T02:34:37;10.40;;;7.95;;
33802;SDS011;20110;53.120;5.786;2023-04-24T02:37:03;12.75;;;8.30;;
33802;SDS011;20110;53.120;5.786;2023-04-24T02:39:29;15.63;;;8.20;;
33802;SDS011;20110;53.120;5.786;2023-04-24T02:41:55;16.65;;;8.38;;
33802;SDS011;20110;53.120;5.786;2023-04-24T02:44:21;15.15;;;9.00;;
33802;SDS011;20110;53.120;5.786;2023-04-24T02:46:47;16.80;;;8.38;;
33802;SDS011;20110;53.120;5.786;2023-04-24T02:49:13;14.63;;;8.77;;
33802;SDS011;20110;53.120;5.786;2023-04-24T02:51:39;19.95;;;9.00;;
33802;SDS011;20110;53.120;5.786;2023-04-24T02:54:06;23.80;;;9.32;;
33802;SDS011;20110;53.120;5.786;2023-04-24T02:56:36;12.95;;;7.68;;
33802;SDS011;20110;53.120;5.786;2023-04-24T02:59:02;13.88;;;7.15;;
33802;SDS011;20110;53.120;5.786;2023-04-24T03:01:28;15.05;;;7.10;;
33802;SDS011;20110;53.120;5.786;2023-04-24T03:03:54;9.93;;;6.68;;
33802;SDS011;20110;53.120;5.786;2023-04-24T03:06:20;9.35;;;5.07;;
33802;SDS011;20110;53.120;5.786;2023-04-24T03:08:46;9.30;;;5.25;;
33802;SDS011;20110;53.120;5.786;2023-04-24T03:11:13;9.65;;;6.15;;
33802;SDS011;20110;53.120;5.786;2023-04-24T03:13:39;7.07;;;5.57;;
33802;SDS011;20110;53.120;5.786;2023-04-24T03:16:05;6.82;;;5.57;;
33802;SDS011;20110;53.120;5.786;2023-04-24T03:18:30;7.93;;;6.07;;
33802;SDS011;20110;53.120;5.786;2023-04-24T03:20:56;9.15;;;6.43;;
33802;SDS011;20110;53.120;5.786;2023-04-24T03:23:22;11.50;;;7.50;;
33802;SDS011;20110;53.120;5.786;2023-04-24T03:25:48;12.85;;;8.07;;
33802;SDS011;20110;53.120;5.786;2023-04-24T03:28:14;16.05;;;9.00;;
33802;SDS011;20110;53.120;5.786;2023-04-24T03:30:40;15.90;;;10.07;;
33802;SDS011;20110;53.120;5.786;2023-04-24T03:33:06;20.35;;;9.95;;
33802;SDS011;20110;53.120;5.786;2023-04-24T03:35:33;21.95;;;11.10;;
33802;SDS011;20110;53.120;5.786;2023-04-24T03:37:59;21.85;;;12.07;;
33802;SDS011;20110;53.120;5.786;2023-04-24T03:40:25;21.10;;;11.90;;
33802;SDS011;20110;53.120;5.786;2023-04-24T03:42:51;25.35;;;12.80;;
33802;SDS011;20110;53.120;5.786;2023-04-24T03:45:16;31.02;;;13.40;;
33802;SDS011;20110;53.120;5.786;2023-04-24T03:47:42;27.45;;;14.50;;
33802;SDS011;20110;53.120;5.786;2023-04-24T03:50:09;23.77;;;14.52;;
33802;SDS011;20110;53.120;5.786;2023-04-24T03:52:35;31.33;;;16.30;;
33802;SDS011;20110;53.120;5.786;2023-04-24T03:55:01;19.30;;;11.80;;
33802;SDS011;20110;53.120;5.786;2023-04-24T03:57:27;14.10;;;7.93;;
33802;SDS011;20110;53.120;5.786;2023-04-24T03:59:53;10.85;;;6.65;;
33802;SDS011;20110;53.120;5.786;2023-04-24T04:02:19;12.38;;;5.97;;
33802;SDS011;20110;53.120;5.786;2023-04-24T04:04:45;7.60;;;3.97;;
33802;SDS011;20110;53.120;5.786;2023-04-24T04:07:11;6.68;;;4.07;;
33802;SDS011;20110;53.120;5.786;2023-04-24T04:09:37;5.60;;;4.45;;
33802;SDS011;20110;53.120;5.786;2023-04-24T04:12:03;5.82;;;4.90;;
33802;SDS011;20110;53.120;5.786;2023-04-24T04:14:29;7.15;;;5.57;;
33802;SDS011;20110;53.120;5.786;2023-04-24T04:16:55;9.98;;;6.95;;
33802;SDS011;20110;53.120;5.786;2023-04-24T04:19:21;14.98;;;7.93;;
33802;SDS011;20110;53.120;5.786;2023-04-24T04:21:47;10.38;;;7.75;;
33802;SDS011;20110;53.120;5.786;2023-04-24T04:24:17;10.85;;;7.68;;
33802;SDS011;20110;53.120;5.786;2023-04-24T04:26:46;14.50;;;7.93;;
33802;SDS011;20110;53.120;5.786;2023-04-24T04:29:12;13.05;;;7.35;;
33802;SDS011;20110;53.120;5.786;2023-04-24T04:31:39;6.70;;;5.60;;
33802;SDS011;20110;53.120;5.786;2023-04-24T04:34:05;7.78;;;2.58;;
33802;SDS011;20110;53.120;5.786;2023-04-24T04:36:30;4.82;;;2.17;;
33802;SDS011;20110;53.120;5.786;2023-04-24T04:38:56;2.42;;;1.67;;
33802;SDS011;20110;53.120;5.786;2023-04-24T04:41:24;2.60;;;1.77;;
33802;SDS011;20110;53.120;5.786;2023-04-24T04:43:50;3.35;;;1.33;;
33802;SDS011;20110;53.120;5.786;2023-04-24T04:46:16;2.15;;;1.23;;
33802;SDS011;20110;53.120;5.786;2023-04-24T04:48:42;2.25;;;2.00;;
33802;SDS011;20110;53.120;5.786;2023-04-24T04:51:08;5.70;;;2.58;;
33802;SDS011;20110;53.120;5.786;2023-04-24T04:53:33;6.95;;;2.85;;
33802;SDS011;20110;53.120;5.786;2023-04-24T04:56:00;7.72;;;2.80;;
33802;SDS011;20110;53.120;5.786;2023-04-24T04:58:25;6.13;;;3.92;;
33802;SDS011;20110;53.120;5.786;2023-04-24T05:00:51;6.22;;;5.20;;
33802;SDS011;20110;53.120;5.786;2023-04-24T05:03:18;16.15;;;6.72;;
33802;SDS011;20110;53.120;5.786;2023-04-24T05:05:43;13.07;;;7.53;;
33802;SDS011;20110;53.120;5.786;2023-04-24T05:08:11;20.60;;;8.80;;
33802;SDS011;20110;53.120;5.786;2023-04-24T05:10:36;20.92;;;10.70;;
33802;SDS011;20110;53.120;5.786;2023-04-24T05:13:03;21.05;;;9.65;;
33802;SDS011;20110;53.120;5.786;2023-04-24T05:15:29;22.25;;;10.60;;
33802;SDS011;20110;53.120;5.786;2023-04-24T05:17:55;20.20;;;8.45;;
33802;SDS011;20110;53.120;5.786;2023-04-24T05:20:21;16.45;;;9.65;;
33802;SDS011;20110;53.120;5.786;2023-04-24T05:22:47;17.85;;;8.10;;
33802;SDS011;20110;53.120;5.786;2023-04-24T05:25:13;18.55;;;10.05;;
33802;SDS011;20110;53.120;5.786;2023-04-24T05:27:39;19.60;;;10.25;;
33802;SDS011;20110;53.120;5.786;2023-04-24T05:30:05;10.77;;;8.27;;
33802;SDS011;20110;53.120;5.786;2023-04-24T05:32:32;10.07;;;6.10;;
33802;SDS011;20110;53.120;5.786;2023-04-24T05:34:58;9.32;;;5.03;;
33802;SDS011;20110;53.120;5.786;2023-04-24T05:37:24;4.05;;;3.45;;
33802;SDS011;20110;53.120;5.786;2023-04-24T05:39:50;5.68;;;3.90;;
33802;SDS011;20110;53.120;5.786;2023-04-24T05:42:16;3.92;;;3.50;;
33802;SDS011;20110;53.120;5.786;2023-04-24T05:44:42;4.57;;;3.85;;
33802;SDS011;20110;53.120;5.786;2023-04-24T05:47:08;9.18;;;3.60;;
33802;SDS011;20110;53.120;5.786;2023-04-24T05:49:34;6.15;;;3.47;;
33802;SDS011;20110;53.120;5.786;2023-04-24T05:52:00;5.47;;;3.15;;
33802;SDS011;20110;53.120;5.786;2023-04-24T05:54:26;3.63;;;3.33;;
33802;SDS011;20110;53.120;5.786;2023-04-24T05:56:52;8.65;;;3.15;;
33802;SDS011;20110;53.120;5.786;2023-04-24T05:59:19;8.15;;;3.08;;
33802;SDS011;20110;53.120;5.786;2023-04-24T06:01:45;7.95;;;2.40;;
33802;SDS011;20110;53.120;5.786;2023-04-24T06:04:11;11.68;;;2.40;;
33802;SDS011;20110;53.120;5.786;2023-04-24T06:06:38;7.72;;;2.25;;
33802;SDS011;20110;53.120;5.786;2023-04-24T06:09:05;5.60;;;2.63;;
33802;SDS011;20110;53.120;5.786;2023-04-24T06:11:31;5.30;;;2.72;;
33802;SDS011;20110;53.120;5.786;2023-04-24T06:13:57;6.13;;;2.70;;
33802;SDS011;20110;53.120;5.786;2023-04-24T06:16:23;8.15;;;1.60;;
33802;SDS011;20110;53.120;5.786;2023-04-24T06:18:49;4.38;;;1.75;;
33802;SDS011;20110;53.120;5.786;2023-04-24T06:21:15;4.20;;;1.63;;
33802;SDS011;20110;53.120;5.786;2023-04-24T06:23:42;9.82;;;2.50;;
33802;SDS011;20110;53.120;5.786;2023-04-24T06:26:07;7.53;;;4.10;;
33802;SDS011;20110;53.120;5.786;2023-04-24T06:28:33;15.98;;;6.50;;
33802;SDS011;20110;53.120;5.786;2023-04-24T06:31:00;15.05;;;7.72;;
33802;SDS011;20110;53.120;5.786;2023-04-24T06:33:26;16.33;;;8.32;;
33802;SDS011;20110;53.120;5.786;2023-04-24T06:35:52;20.35;;;9.52;;
33802;SDS011;20110;53.120;5.786;2023-04-24T06:38:18;33.10;;;12.30;;
33802;SDS011;20110;53.120;5.786;2023-04-24T06:40:44;36.00;;;13.82;;
33802;SDS011;20110;53.120;5.786;2023-04-24T06:43:10;26.90;;;13.35;;
33802;SDS011;20110;53.120;5.786;2023-04-24T06:45:36;26.65;;;14.10;;
33802;SDS011;20110;53.120;5.786;2023-04-24T06:48:04;31.38;;;14.65;;
33802;SDS011;20110;53.120;5.786;2023-04-24T06:50:30;43.85;;;17.35;;
33802;SDS011;20110;53.120;5.786;2023-04-24T06:52:56;41.58;;;16.95;;
33802;SDS011;20110;53.120;5.786;2023-04-24T06:55:22;33.17;;;13.63;;
33802;SDS011;20110;53.120;5.786;2023-04-24T06:57:48;28.55;;;12.93;;
33802;SDS011;20110;53.120;5.786;2023-04-24T07:00:14;31.05;;;13.70;;
33802;SDS011;20110;53.120;5.786;2023-04-24T07:02:40;23.55;;;12.90;;
33802;SDS011;20110;53.120;5.786;2023-04-24T07:05:06;31.02;;;14.18;;
33802;SDS011;20110;53.120;5.786;2023-04-24T07:07:33;28.15;;;13.80;;
33802;SDS011;20110;53.120;5.786;2023-04-24T07:09:59;35.42;;;14.55;;
33802;SDS011;20110;53.120;5.786;2023-04-24T07:12:25;35.28;;;15.75;;
33802;SDS011;20110;53.120;5.786;2023-04-24T07:14:52;35.28;;;17.10;;
33802;SDS011;20110;53.120;5.786;2023-04-24T07:17:18;37.92;;;17.13;;
33802;SDS011;20110;53.120;5.786;2023-04-24T07:19:44;32.30;;;17.63;;
33802;SDS011;20110;53.120;5.786;2023-04-24T07:22:10;35.30;;;17.38;;
33802;SDS011;20110;53.120;5.786;2023-04-24T07:24:41;39.78;;;18.30;;
33802;SDS011;20110;53.120;5.786;2023-04-24T07:27:08;23.45;;;14.50;;
33802;SDS011;20110;53.120;5.786;2023-04-24T07:29:34;24.92;;;13.70;;
33802;SDS011;20110;53.120;5.786;2023-04-24T07:32:00;30.38;;;15.35;;
33802;SDS011;20110;53.120;5.786;2023-04-24T07:34:28;31.60;;;14.68;;
33802;SDS011;20110;53.120;5.786;2023-04-24T07:36:53;29.42;;;13.45;;
33802;SDS011;20110;53.120;5.786;2023-04-24T07:39:19;30.95;;;12.70;;
33802;SDS011;20110;53.120;5.786;2023-04-24T07:41:45;23.48;;;12.60;;
33802;SDS011;20110;53.120;5.786;2023-04-24T07:44:11;22.40;;;10.98;;
33802;SDS011;20110;53.120;5.786;2023-04-24T07:46:37;21.35;;;9.40;;
33802;SDS011;20110;53.120;5.786;2023-04-24T07:49:03;16.25;;;8.80;;
33802;SDS011;20110;53.120;5.786;2023-04-24T07:51:29;22.80;;;8.68;;
33802;SDS011;20110;53.120;5.786;2023-04-24T07:53:56;14.00;;;8.60;;
33802;SDS011;20110;53.120;5.786;2023-04-24T07:56:21;12.48;;;8.60;;
33802;SDS011;20110;53.120;5.786;2023-04-24T07:58:47;16.42;;;8.13;;
33802;SDS011;20110;53.120;5.786;2023-04-24T08:01:13;22.02;;;8.60;;
33802;SDS011;20110;53.120;5.786;2023-04-24T08:03:39;12.40;;;8.15;;
33802;SDS011;20110;53.120;5.786;2023-04-24T08:06:05;15.30;;;8.05;;
33802;SDS011;20110;53.120;5.786;2023-04-24T08:08:31;12.52;;;7.65;;
33802;SDS011;20110;53.120;5.786;2023-04-24T08:10:57;12.20;;;7.90;;
33802;SDS011;20110;53.120;5.786;2023-04-24T08:13:23;19.48;;;6.82;;
33802;SDS011;20110;53.120;5.786;2023-04-24T08:15:49;17.48;;;7.13;;
33802;SDS011;20110;53.120;5.786;2023-04-24T08:18:15;18.52;;;7.40;;
33802;SDS011;20110;53.120;5.786;2023-04-24T08:20:41;19.92;;;6.40;;
33802;SDS011;20110;53.120;5.786;2023-04-24T08:23:07;14.05;;;7.07;;
33802;SDS011;20110;53.120;5.786;2023-04-24T08:25:33;19.98;;;6.40;;
33802;SDS011;20110;53.120;5.786;2023-04-24T08:28:00;19.73;;;6.32;;
33802;SDS011;20110;53.120;5.786;2023-04-24T08:30:29;18.10;;;6.35;;
33802;SDS011;20110;53.120;5.786;2023-04-24T08:32:54;12.75;;;5.53;;
33802;SDS011;20110;53.120;5.786;2023-04-24T08:35:21;18.38;;;6.00;;
33802;SDS011;20110;53.120;5.786;2023-04-24T08:37:48;14.20;;;5.43;;
33802;SDS011;20110;53.120;5.786;2023-04-24T08:40:14;9.23;;;4.88;;
33802;SDS011;20110;53.120;5.786;2023-04-24T08:42:44;11.00;;;4.68;;
33802;SDS011;20110;53.120;5.786;2023-04-24T08:45:11;15.52;;;4.38;;
33802;SDS011;20110;53.120;5.786;2023-04-24T08:47:38;10.60;;;3.80;;
33802;SDS011;20110;53.120;5.786;2023-04-24T08:50:06;8.02;;;4.25;;
33802;SDS011;20110;53.120;5.786;2023-04-24T08:52:33;15.07;;;3.70;;
33802;SDS011;20110;53.120;5.786;2023-04-24T08:55:00;8.70;;;3.40;;
33802;SDS011;20110;53.120;5.786;2023-04-24T08:57:27;10.43;;;3.67;;
33802;SDS011;20110;53.120;5.786;2023-04-24T08:59:54;8.52;;;3.28;;
33802;SDS011;20110;53.120;5.786;2023-04-24T09:02:22;12.00;;;2.92;;
33802;SDS011;20110;53.120;5.786;2023-04-24T09:04:49;15.75;;;3.53;;
33802;SDS011;20110;53.120;5.786;2023-04-24T09:07:17;20.48;;;4.05;;
33802;SDS011;20110;53.120;5.786;2023-04-24T09:09:44;10.60;;;3.45;;
33802;SDS011;20110;53.120;5.786;2023-04-24T09:12:11;12.90;;;3.38;;
33802;SDS011;20110;53.120;5.786;2023-04-24T09:14:37;12.00;;;3.58;;
33802;SDS011;20110;53.120;5.786;2023-04-24T09:17:07;19.27;;;4.28;;
33802;SDS011;20110;53.120;5.786;2023-04-24T09:19:33;11.23;;;3.25;;
33802;SDS011;20110;53.120;5.786;2023-04-24T09:21:59;10.15;;;3.65;;
33802;SDS011;20110;53.120;5.786;2023-04-24T09:24:30;8.20;;;2.58;;
33802;SDS011;20110;53.120;5.786;2023-04-24T09:26:56;14.13;;;4.25;;
33802;SDS011;20110;53.120;5.786;2023-04-24T09:29:29;10.35;;;3.30;;
33802;SDS011;20110;53.120;5.786;2023-04-24T09:31:55;10.93;;;3.40;;
33802;SDS011;20110;53.120;5.786;2023-04-24T09:34:24;15.40;;;3.55;;
33802;SDS011;20110;53.120;5.786;2023-04-24T09:36:52;16.02;;;4.15;;
33802;SDS011;20110;53.120;5.786;2023-04-24T09:39:19;17.35;;;3.33;;
33802;SDS011;20110;53.120;5.786;2023-04-24T09:44:20;10.95;;;2.78;;
33802;SDS011;20110;53.120;5.786;2023-04-24T09:46:56;9.65;;;2.70;;
33802;SDS011;20110;53.120;5.786;2023-04-24T09:49:29;9.95;;;2.30;;
33802;SDS011;20110;53.120;5.786;2023-04-24T09:54:31;7.28;;;2.15;;
33802;SDS011;20110;53.120;5.786;2023-04-24T09:56:58;13.38;;;2.28;;
33802;SDS011;20110;53.120;5.786;2023-04-24T09:59:25;18.33;;;2.63;;
33802;SDS011;20110;53.120;5.786;2023-04-24T10:01:51;15.32;;;3.55;;
33802;SDS011;20110;53.120;5.786;2023-04-24T10:04:20;18.60;;;2.65;;
33802;SDS011;20110;53.120;5.786;2023-04-24T10:06:50;8.27;;;2.00;;
33802;SDS011;20110;53.120;5.786;2023-04-24T10:09:19;5.93;;;2.30;;
33802;SDS011;20110;53.120;5.786;2023-04-24T10:11:51;7.03;;;2.08;;
33802;SDS011;20110;53.120;5.786;2023-04-24T10:14:20;12.65;;;2.00;;
33802;SDS011;20110;53.120;5.786;2023-04-24T10:16:49;17.45;;;3.05;;
33802;SDS011;20110;53.120;5.786;2023-04-24T10:19:18;8.15;;;1.90;;
33802;SDS011;20110;53.120;5.786;2023-04-24T10:21:45;6.35;;;2.42;;
33802;SDS011;20110;53.120;5.786;2023-04-24T10:24:14;5.97;;;2.63;;
33802;SDS011;20110;53.120;5.786;2023-04-24T10:26:43;14.25;;;2.65;;
33802;SDS011;20110;53.120;5.786;2023-04-24T10:29:11;14.70;;;2.00;;
33802;SDS011;20110;53.120;5.786;2023-04-24T10:31:40;10.10;;;2.30;;
33802;SDS011;20110;53.120;5.786;2023-04-24T10:34:07;12.10;;;2.17;;
33802;SDS011;20110;53.120;5.786;2023-04-24T10:36:35;10.95;;;2.17;;
33802;SDS011;20110;53.120;5.786;2023-04-24T10:39:08;8.32;;;2.45;;
33802;SDS011;20110;53.120;5.786;2023-04-24T10:41:38;4.55;;;1.52;;
33802;SDS011;20110;53.120;5.786;2023-04-24T10:46:40;10.98;;;2.55;;
33802;SDS011;20110;53.120;5.786;2023-04-24T10:49:10;6.32;;;1.73;;
33802;SDS011;20110;53.120;5.786;2023-04-24T10:51:44;6.47;;;2.22;;
33802;SDS011;20110;53.120;5.786;2023-04-24T10:54:22;7.95;;;1.83;;
33802;SDS011;20110;53.120;5.786;2023-04-24T10:56:53;3.80;;;1.80;;
33802;SDS011;20110;53.120;5.786;2023-04-24T10:59:46;4.63;;;1.88;;
33802;SDS011;20110;53.120;5.786;2023-04-24T11:02:36;4.72;;;1.73;;
33802;SDS011;20110;53.120;5.786;2023-04-24T11:05:05;11.57;;;2.13;;
33802;SDS011;20110;53.120;5.786;2023-04-24T11:10:46;8.35;;;1.42;;
33802;SDS011;20110;53.120;5.786;2023-04-24T11:13:23;4.70;;;1.58;;
33802;SDS011;20110;53.120;5.786;2023-04-24T11:19:18;3.50;;;1.20;;
33802;SDS011;20110;53.120;5.786;2023-04-24T11:21:47;8.02;;;1.48;;
33802;SDS011;20110;53.120;5.786;2023-04-24T11:32:33;4.78;;;1.08;;
33802;SDS011;20110;53.120;5.786;2023-04-24T11:37:42;5.32;;;1.05;;
33802;SDS011;20110;53.120;5.786;2023-04-24T11:40:11;6.20;;;1.23;;
33802;SDS011;20110;53.120;5.786;2023-04-24T11:42:43;9.95;;;1.50;;
33802;SDS011;20110;53.120;5.786;2023-04-24T11:45:14;8.55;;;2.03;;
33802;SDS011;20110;53.120;5.786;2023-04-24T11:47:47;9.30;;;1.80;;
33802;SDS011;20110;53.120;5.786;2023-04-24T11:50:14;3.67;;;1.15;;
33802;SDS011;20110;53.120;5.786;2023-04-24T11:52:43;7.50;;;1.45;;
33802;SDS011;20110;53.120;5.786;2023-04-24T11:57:59;8.43;;;1.55;;
33802;SDS011;20110;53.120;5.786;2023-04-24T12:00:27;8.55;;;1.23;;
33802;SDS011;20110;53.120;5.786;2023-04-24T12:03:09;4.90;;;1.52;;
33802;SDS011;20110;53.120;5.786;2023-04-24T12:05:36;6.22;;;1.23;;
33802;SDS011;20110;53.120;5.786;2023-04-24T12:08:03;7.80;;;1.83;;
33802;SDS011;20110;53.120;5.786;2023-04-24T12:10:30;6.22;;;1.73;;
33802;SDS011;20110;53.120;5.786;2023-04-24T12:12:59;7.15;;;1.00;;
33802;SDS011;20110;53.120;5.786;2023-04-24T12:15:25;8.30;;;1.60;;
33802;SDS011;20110;53.120;5.786;2023-04-24T12:17:53;4.88;;;1.40;;
33802;SDS011;20110;53.120;5.786;2023-04-24T12:20:38;6.15;;;1.10;;
33802;SDS011;20110;53.120;5.786;2023-04-24T12:23:05;3.03;;;1.00;;
33802;SDS011;20110;53.120;5.786;2023-04-24T12:25:31;6.93;;;1.02;;
33802;SDS011;20110;53.120;5.786;2023-04-24T12:30:30;7.47;;;0.93;;
33802;SDS011;20110;53.120;5.786;2023-04-24T12:33:05;3.30;;;2.95;;
33802;SDS011;20110;53.120;5.786;2023-04-24T12:35:32;1.73;;;0.90;;
33802;SDS011;20110;53.120;5.786;2023-04-24T12:38:11;2.03;;;0.52;;
33802;SDS011;20110;53.120;5.786;2023-04-24T12:40:39;3.67;;;0.60;;
33802;SDS011;20110;53.120;5.786;2023-04-24T12:43:12;2.15;;;0.50;;
33802;SDS011;20110;53.120;5.786;2023-04-24T12:45:40;3.65;;;0.63;;
33802;SDS011;20110;53.120;5.786;2023-04-24T12:48:06;2.55;;;1.20;;
33802;SDS011;20110;53.120;5.786;2023-04-24T12:50:32;8.82;;;1.27;;
33802;SDS011;20110;53.120;5.786;2023-04-24T12:52:58;3.35;;;1.10;;
33802;SDS011;20110;53.120;5.786;2023-04-24T12:55:25;2.28;;;0.90;;
33802;SDS011;20110;53.120;5.786;2023-04-24T12:57:50;5.80;;;0.98;;
33802;SDS011;20110;53.120;5.786;2023-04-24T13:00:18;4.32;;;1.80;;
33802;SDS011;20110;53.120;5.786;2023-04-24T13:02:44;2.63;;;1.50;;
33802;SDS011;20110;53.120;5.786;2023-04-24T13:05:09;6.05;;;1.73;;
33802;SDS011;20110;53.120;5.786;2023-04-24T13:07:36;13.25;;;1.58;;
33802;SDS011;20110;53.120;5.786;2023-04-24T13:10:02;8.75;;;1.60;;
33802;SDS011;20110;53.120;5.786;2023-04-24T13:12:28;15.90;;;2.25;;
33802;SDS011;20110;53.120;5.786;2023-04-24T13:14:54;9.88;;;2.28;;
33802;SDS011;20110;53.120;5.786;2023-04-24T13:19:49;5.00;;;2.13;;
33802;SDS011;20110;53.120;5.786;2023-04-24T13:22:16;4.18;;;1.92;;
33802;SDS011;20110;53.120;5.786;2023-04-24T13:24:45;12.25;;;1.58;;
33802;SDS011;20110;53.120;5.786;2023-04-24T13:27:14;16.67;;;2.22;;
33802;SDS011;20110;53.120;5.786;2023-04-24T13:29:41;14.55;;;2.97;;
33802;SDS011;20110;53.120;5.786;2023-04-24T13:32:07;17.15;;;3.20;;
33802;SDS011;20110;53.120;5.786;2023-04-24T13:34:35;18.45;;;2.45;;
33802;SDS011;20110;53.120;5.786;2023-04-24T13:37:01;8.77;;;2.20;;
33802;SDS011;20110;53.120;5.786;2023-04-24T13:39:28;8.05;;;1.75;;
33802;SDS011;20110;53.120;5.786;2023-04-24T13:41:55;4.65;;;1.92;;
33802;SDS011;20110;53.120;5.786;2023-04-24T13:44:21;11.27;;;2.97;;
33802;SDS011;20110;53.120;5.786;2023-04-24T13:46:48;13.07;;;3.10;;
33802;SDS011;20110;53.120;5.786;2023-04-24T13:49:19;10.55;;;2.50;;
33802;SDS011;20110;53.120;5.786;2023-04-24T13:51:47;17.77;;;2.72;;
33802;SDS011;20110;53.120;5.786;2023-04-24T13:54:13;12.73;;;3.80;;
33802;SDS011;20110;53.120;5.786;2023-04-24T13:56:42;13.40;;;2.70;;
33802;SDS011;20110;53.120;5.786;2023-04-24T13:59:08;19.33;;;3.38;;
33802;SDS011;20110;53.120;5.786;2023-04-24T14:01:34;16.63;;;4.07;;
33802;SDS011;20110;53.120;5.786;2023-04-24T14:04:01;10.68;;;2.50;;
33802;SDS011;20110;53.120;5.786;2023-04-24T14:06:26;13.23;;;2.50;;
33802;SDS011;20110;53.120;5.786;2023-04-24T14:08:52;17.08;;;3.30;;
33802;SDS011;20110;53.120;5.786;2023-04-24T14:11:18;8.98;;;2.65;;
33802;SDS011;20110;53.120;5.786;2023-04-24T14:13:45;14.63;;;3.08;;
33802;SDS011;20110;53.120;5.786;2023-04-24T14:16:11;5.18;;;3.28;;
33802;SDS011;20110;53.120;5.786;2023-04-24T14:18:37;4.78;;;2.15;;
33802;SDS011;20110;53.120;5.786;2023-04-24T14:21:03;16.05;;;2.60;;
33802;SDS011;20110;53.120;5.786;2023-04-24T14:23:29;8.65;;;4.20;;
33802;SDS011;20110;53.120;5.786;2023-04-24T14:25:56;20.52;;;3.30;;
33802;SDS011;20110;53.120;5.786;2023-04-24T14:28:23;10.68;;;2.58;;
33802;SDS011;20110;53.120;5.786;2023-04-24T14:30:50;22.27;;;11.82;;
33802;SDS011;20110;53.120;5.786;2023-04-24T14:33:16;10.52;;;2.75;;
33802;SDS011;20110;53.120;5.786;2023-04-24T14:35:42;15.05;;;2.38;;
33802;SDS011;20110;53.120;5.786;2023-04-24T14:38:08;13.57;;;3.03;;
33802;SDS011;20110;53.120;5.786;2023-04-24T14:40:34;11.10;;;3.25;;
33802;SDS011;20110;53.120;5.786;2023-04-24T14:43:01;20.25;;;3.97;;
33802;SDS011;20110;53.120;5.786;2023-04-24T14:45:27;18.17;;;3.88;;
33802;SDS011;20110;53.120;5.786;2023-04-24T14:47:53;8.68;;;3.20;;
33802;SDS011;20110;53.120;5.786;2023-04-24T14:50:20;10.10;;;2.58;;
33802;SDS011;20110;53.120;5.786;2023-04-24T14:52:45;7.72;;;4.57;;
33802;SDS011;20110;53.120;5.786;2023-04-24T14:55:12;8.88;;;2.63;;
33802;SDS011;20110;53.120;5.786;2023-04-24T14:57:38;14.50;;;3.13;;
33802;SDS011;20110;53.120;5.786;2023-04-24T15:00:07;10.98;;;2.55;;
33802;SDS011;20110;53.120;5.786;2023-04-24T15:02:35;13.52;;;3.67;;
33802;SDS011;20110;53.120;5.786;2023-04-24T15:05:05;12.88;;;2.67;;
33802;SDS011;20110;53.120;5.786;2023-04-24T15:07:32;5.97;;;2.88;;